Willowbrook, Illinois
Current Conditions -  °F | °C
As of 9:53 PM on Friday 19 Dec 2014 (Local Time) from KMDW Reporting Station
Overcast Overcast  
Wind Chill: 33°   Ceiling: 2400
Heat Index: 33°   Visibility: 10mi
Dew Point: 25°   Wind: 3mph
Humidity: 72%   Direction: 180°S
Pressure: 30.27"   Gusts: NA
Location:  41.755°N, 87.9282°W
Report Text: KMDW 200353Z 18003KT 10SM OVC024 01/M04 A3027 RMK AO2 SLP261 T00061039
Loading
Personal Weather Stations






























Interactive Weather Map New forecast layout! Learn more

10-Day Weather Forecast

Advertisements
Track Severe Weather on mobile